sensor_id;sensor_type;location;lat;lon;timestamp;temperature;humidity
439;DHT22;206;48.782;9.252;2022-07-29T00:01:21;23.80;44.70
439;DHT22;206;48.782;9.252;2022-07-29T00:03:47;23.80;44.70
439;DHT22;206;48.782;9.252;2022-07-29T00:06:14;23.80;44.90
439;DHT22;206;48.782;9.252;2022-07-29T00:08:40;23.80;45.40
439;DHT22;206;48.782;9.252;2022-07-29T00:11:05;23.70;46.00
439;DHT22;206;48.782;9.252;2022-07-29T00:13:31;23.70;46.00
439;DHT22;206;48.782;9.252;2022-07-29T00:15:57;23.70;46.00
439;DHT22;206;48.782;9.252;2022-07-29T00:18:22;23.60;46.10
439;DHT22;206;48.782;9.252;2022-07-29T00:20:48;23.60;46.40
439;DHT22;206;48.782;9.252;2022-07-29T00:23:13;23.60;46.80
439;DHT22;206;48.782;9.252;2022-07-29T00:25:39;23.60;47.20
439;DHT22;206;48.782;9.252;2022-07-29T00:28:05;23.60;47.40
439;DHT22;206;48.782;9.252;2022-07-29T00:30:31;23.50;47.50
439;DHT22;206;48.782;9.252;2022-07-29T00:32:56;23.60;47.90
439;DHT22;206;48.782;9.252;2022-07-29T00:35:22;23.50;48.00
439;DHT22;206;48.782;9.252;2022-07-29T00:38:06;23.50;48.20
439;DHT22;206;48.782;9.252;2022-07-29T00:40:32;23.50;48.40
439;DHT22;206;48.782;9.252;2022-07-29T00:42:57;23.50;48.50
439;DHT22;206;48.782;9.252;2022-07-29T00:45:23;23.50;49.10
439;DHT22;206;48.782;9.252;2022-07-29T00:47:49;23.50;49.60
439;DHT22;206;48.782;9.252;2022-07-29T00:50:14;23.50;50.30
439;DHT22;206;48.782;9.252;2022-07-29T00:52:41;23.50;51.10
439;DHT22;206;48.782;9.252;2022-07-29T00:55:10;23.50;51.40
439;DHT22;206;48.782;9.252;2022-07-29T00:57:37;23.50;50.90
439;DHT22;206;48.782;9.252;2022-07-29T01:00:07;23.50;50.80
439;DHT22;206;48.782;9.252;2022-07-29T01:02:34;23.50;50.30
439;DHT22;206;48.782;9.252;2022-07-29T01:05:00;23.40;50.10
439;DHT22;206;48.782;9.252;2022-07-29T01:07:27;23.40;50.00
439;DHT22;206;48.782;9.252;2022-07-29T01:09:55;23.40;50.40
439;DHT22;206;48.782;9.252;2022-07-29T01:12:25;23.40;50.70
439;DHT22;206;48.782;9.252;2022-07-29T01:14:52;23.40;51.10
439;DHT22;206;48.782;9.252;2022-07-29T01:17:28;23.40;51.30
439;DHT22;206;48.782;9.252;2022-07-29T01:20:07;23.30;51.50
439;DHT22;206;48.782;9.252;2022-07-29T01:28:08;23.30;51.00
439;DHT22;206;48.782;9.252;2022-07-29T01:30:43;23.30;50.60
439;DHT22;206;48.782;9.252;2022-07-29T01:33:13;23.30;50.80
439;DHT22;206;48.782;9.252;2022-07-29T01:36:01;23.30;50.60
439;DHT22;206;48.782;9.252;2022-07-29T01:38:33;23.40;50.40
439;DHT22;206;48.782;9.252;2022-07-29T01:41:07;23.40;50.10
439;DHT22;206;48.782;9.252;2022-07-29T01:43:40;23.40;49.90
439;DHT22;206;48.782;9.252;2022-07-29T01:46:11;23.40;49.70
439;DHT22;206;48.782;9.252;2022-07-29T01:48:50;23.40;49.60
439;DHT22;206;48.782;9.252;2022-07-29T01:51:21;23.40;49.50
439;DHT22;206;48.782;9.252;2022-07-29T01:54:07;23.40;49.60
439;DHT22;206;48.782;9.252;2022-07-29T01:56:35;23.40;49.50
439;DHT22;206;48.782;9.252;2022-07-29T01:59:03;23.30;49.70
439;DHT22;206;48.782;9.252;2022-07-29T02:01:31;23.40;50.00
439;DHT22;206;48.782;9.252;2022-07-29T02:03:59;23.40;50.00
439;DHT22;206;48.782;9.252;2022-07-29T02:06:28;23.30;50.30
439;DHT22;206;48.782;9.252;2022-07-29T02:08:56;23.30;50.60
439;DHT22;206;48.782;9.252;2022-07-29T02:11:23;23.20;51.60
439;DHT22;206;48.782;9.252;2022-07-29T02:13:52;23.10;52.70
439;DHT22;206;48.782;9.252;2022-07-29T02:16:20;23.00;53.60
439;DHT22;206;48.782;9.252;2022-07-29T02:18:48;23.00;53.60
439;DHT22;206;48.782;9.252;2022-07-29T02:21:19;22.90;53.50
439;DHT22;206;48.782;9.252;2022-07-29T02:23:47;22.90;53.50
439;DHT22;206;48.782;9.252;2022-07-29T02:26:14;22.80;53.20
439;DHT22;206;48.782;9.252;2022-07-29T02:28:41;22.80;52.90
439;DHT22;206;48.782;9.252;2022-07-29T02:31:07;22.80;52.80
439;DHT22;206;48.782;9.252;2022-07-29T02:33:34;22.80;52.50
439;DHT22;206;48.782;9.252;2022-07-29T02:36:01;22.70;52.30
439;DHT22;206;48.782;9.252;2022-07-29T02:38:28;22.70;52.60
439;DHT22;206;48.782;9.252;2022-07-29T02:41:17;22.70;52.30
439;DHT22;206;48.782;9.252;2022-07-29T02:43:47;22.70;52.20
439;DHT22;206;48.782;9.252;2022-07-29T02:46:16;22.60;52.00
439;DHT22;206;48.782;9.252;2022-07-29T02:48:55;22.60;51.80
439;DHT22;206;48.782;9.252;2022-07-29T02:51:33;22.60;51.80
439;DHT22;206;48.782;9.252;2022-07-29T02:54:04;22.60;51.70
439;DHT22;206;48.782;9.252;2022-07-29T02:56:33;22.60;52.00
439;DHT22;206;48.782;9.252;2022-07-29T02:59:04;22.60;52.40
439;DHT22;206;48.782;9.252;2022-07-29T03:01:32;22.60;52.10
439;DHT22;206;48.782;9.252;2022-07-29T03:04:01;22.60;52.10
439;DHT22;206;48.782;9.252;2022-07-29T03:06:28;22.60;52.00
439;DHT22;206;48.782;9.252;2022-07-29T03:08:55;22.60;51.80
439;DHT22;206;48.782;9.252;2022-07-29T03:11:23;22.60;51.40
439;DHT22;206;48.782;9.252;2022-07-29T03:13:48;22.60;51.00
439;DHT22;206;48.782;9.252;2022-07-29T03:16:17;22.60;51.20
439;DHT22;206;48.782;9.252;2022-07-29T03:18:43;22.50;50.90
439;DHT22;206;48.782;9.252;2022-07-29T03:21:09;22.50;51.00
439;DHT22;206;48.782;9.252;2022-07-29T03:23:35;22.40;51.10
439;DHT22;206;48.782;9.252;2022-07-29T03:26:00;22.40;51.20
439;DHT22;206;48.782;9.252;2022-07-29T03:28:26;22.40;51.40
439;DHT22;206;48.782;9.252;2022-07-29T03:30:53;22.40;51.60
439;DHT22;206;48.782;9.252;2022-07-29T03:33:19;22.40;52.20
439;DHT22;206;48.782;9.252;2022-07-29T03:35:44;22.30;52.30
439;DHT22;206;48.782;9.252;2022-07-29T03:38:10;22.30;52.10
439;DHT22;206;48.782;9.252;2022-07-29T03:40:43;22.40;52.30
439;DHT22;206;48.782;9.252;2022-07-29T03:43:11;22.30;52.30
439;DHT22;206;48.782;9.252;2022-07-29T03:45:38;22.30;52.40
439;DHT22;206;48.782;9.252;2022-07-29T03:48:09;22.30;52.50
439;DHT22;206;48.782;9.252;2022-07-29T03:50:35;22.30;52.80
439;DHT22;206;48.782;9.252;2022-07-29T03:53:02;22.30;53.00
439;DHT22;206;48.782;9.252;2022-07-29T03:55:29;22.30;52.90
439;DHT22;206;48.782;9.252;2022-07-29T03:57:57;22.30;53.50
439;DHT22;206;48.782;9.252;2022-07-29T04:00:24;22.30;53.30
439;DHT22;206;48.782;9.252;2022-07-29T04:02:51;22.30;53.00
439;DHT22;206;48.782;9.252;2022-07-29T04:05:17;22.30;52.80
439;DHT22;206;48.782;9.252;2022-07-29T04:07:47;22.30;52.70
439;DHT22;206;48.782;9.252;2022-07-29T04:10:13;22.30;52.60
439;DHT22;206;48.782;9.252;2022-07-29T04:12:41;22.30;52.60
439;DHT22;206;48.782;9.252;2022-07-29T04:15:07;22.30;52.60
439;DHT22;206;48.782;9.252;2022-07-29T04:17:33;22.30;52.80
439;DHT22;206;48.782;9.252;2022-07-29T04:19:58;22.40;53.00
439;DHT22;206;48.782;9.252;2022-07-29T04:22:24;22.30;52.60
439;DHT22;206;48.782;9.252;2022-07-29T04:24:50;22.40;52.30
439;DHT22;206;48.782;9.252;2022-07-29T04:27:16;22.40;52.40
439;DHT22;206;48.782;9.252;2022-07-29T04:29:41;22.40;52.20
439;DHT22;206;48.782;9.252;2022-07-29T04:32:07;22.40;52.10
439;DHT22;206;48.782;9.252;2022-07-29T04:34:32;22.40;52.10
439;DHT22;206;48.782;9.252;2022-07-29T04:36:58;22.40;52.00
439;DHT22;206;48.782;9.252;2022-07-29T04:39:24;22.40;51.90
439;DHT22;206;48.782;9.252;2022-07-29T04:41:50;22.50;52.20
439;DHT22;206;48.782;9.252;2022-07-29T04:44:16;22.50;52.40
439;DHT22;206;48.782;9.252;2022-07-29T04:46:41;22.40;52.40
439;DHT22;206;48.782;9.252;2022-07-29T04:49:07;22.40;52.20
439;DHT22;206;48.782;9.252;2022-07-29T04:51:33;22.50;52.30
439;DHT22;206;48.782;9.252;2022-07-29T04:53:59;22.40;52.30
439;DHT22;206;48.782;9.252;2022-07-29T04:56:25;22.40;52.20
439;DHT22;206;48.782;9.252;2022-07-29T04:58:51;22.50;52.00
439;DHT22;206;48.782;9.252;2022-07-29T05:01:17;22.50;52.00
439;DHT22;206;48.782;9.252;2022-07-29T05:03:42;22.50;52.00
439;DHT22;206;48.782;9.252;2022-07-29T05:06:08;22.50;51.90
439;DHT22;206;48.782;9.252;2022-07-29T05:08:33;22.50;51.70
439;DHT22;206;48.782;9.252;2022-07-29T05:10:59;22.60;52.20
439;DHT22;206;48.782;9.252;2022-07-29T05:13:25;22.60;52.80
439;DHT22;206;48.782;9.252;2022-07-29T05:15:50;22.60;53.00
439;DHT22;206;48.782;9.252;2022-07-29T05:18:16;22.60;53.40
439;DHT22;206;48.782;9.252;2022-07-29T05:20:42;22.70;53.80
439;DHT22;206;48.782;9.252;2022-07-29T05:23:07;22.70;54.20
439;DHT22;206;48.782;9.252;2022-07-29T05:25:33;22.80;55.00
439;DHT22;206;48.782;9.252;2022-07-29T05:27:59;22.90;53.30
439;DHT22;206;48.782;9.252;2022-07-29T05:30:24;23.00;52.00
439;DHT22;206;48.782;9.252;2022-07-29T05:32:50;23.00;50.90
439;DHT22;206;48.782;9.252;2022-07-29T05:35:16;23.10;50.40
439;DHT22;206;48.782;9.252;2022-07-29T05:37:42;23.20;49.90
439;DHT22;206;48.782;9.252;2022-07-29T05:40:08;23.20;49.30
439;DHT22;206;48.782;9.252;2022-07-29T05:42:34;23.30;48.90
439;DHT22;206;48.782;9.252;2022-07-29T05:45:01;23.40;48.20
439;DHT22;206;48.782;9.252;2022-07-29T05:47:27;23.40;48.00
439;DHT22;206;48.782;9.252;2022-07-29T05:49:52;23.40;47.70
439;DHT22;206;48.782;9.252;2022-07-29T05:52:18;23.40;47.30
439;DHT22;206;48.782;9.252;2022-07-29T05:54:44;23.40;47.00
439;DHT22;206;48.782;9.252;2022-07-29T05:57:21;23.50;45.80
439;DHT22;206;48.782;9.252;2022-07-29T05:59:47;23.50;45.80
439;DHT22;206;48.782;9.252;2022-07-29T06:02:13;23.50;45.80
439;DHT22;206;48.782;9.252;2022-07-29T06:04:39;23.50;45.40
439;DHT22;206;48.782;9.252;2022-07-29T06:07:05;23.50;45.50
439;DHT22;206;48.782;9.252;2022-07-29T06:09:31;23.50;45.80
439;DHT22;206;48.782;9.252;2022-07-29T06:11:57;23.60;45.90
439;DHT22;206;48.782;9.252;2022-07-29T06:14:24;23.60;45.90
439;DHT22;206;48.782;9.252;2022-07-29T06:16:49;23.70;45.70
439;DHT22;206;48.782;9.252;2022-07-29T06:19:15;23.70;45.60
439;DHT22;206;48.782;9.252;2022-07-29T06:21:44;23.80;45.30
439;DHT22;206;48.782;9.252;2022-07-29T06:24:11;23.80;45.00
439;DHT22;206;48.782;9.252;2022-07-29T06:26:38;23.80;44.80
439;DHT22;206;48.782;9.252;2022-07-29T06:29:03;23.80;44.70
439;DHT22;206;48.782;9.252;2022-07-29T06:31:29;23.90;44.30
439;DHT22;206;48.782;9.252;2022-07-29T06:33:55;24.00;44.20
439;DHT22;206;48.782;9.252;2022-07-29T06:36:20;24.00;44.20
439;DHT22;206;48.782;9.252;2022-07-29T06:38:46;24.10;44.00
439;DHT22;206;48.782;9.252;2022-07-29T06:41:12;24.20;43.70
439;DHT22;206;48.782;9.252;2022-07-29T06:43:43;24.20;43.20
439;DHT22;206;48.782;9.252;2022-07-29T06:46:11;24.30;43.20
439;DHT22;206;48.782;9.252;2022-07-29T06:48:38;24.40;42.60
439;DHT22;206;48.782;9.252;2022-07-29T06:51:04;24.60;42.20
439;DHT22;206;48.782;9.252;2022-07-29T06:53:31;24.90;40.70
439;DHT22;206;48.782;9.252;2022-07-29T06:55:57;25.20;39.60
439;DHT22;206;48.782;9.252;2022-07-29T06:58:24;25.50;38.00
439;DHT22;206;48.782;9.252;2022-07-29T07:00:51;25.70;37.30
439;DHT22;206;48.782;9.252;2022-07-29T07:03:17;25.80;36.40
439;DHT22;206;48.782;9.252;2022-07-29T07:05:43;26.00;36.10
439;DHT22;206;48.782;9.252;2022-07-29T07:08:09;26.10;35.50
439;DHT22;206;48.782;9.252;2022-07-29T07:10:35;26.20;34.60
439;DHT22;206;48.782;9.252;2022-07-29T07:13:06;26.40;34.10
439;DHT22;206;48.782;9.252;2022-07-29T07:15:32;26.60;33.60
439;DHT22;206;48.782;9.252;2022-07-29T07:17:57;26.80;32.80
439;DHT22;206;48.782;9.252;2022-07-29T07:20:24;27.00;32.60
439;DHT22;206;48.782;9.252;2022-07-29T07:22:50;27.20;31.50
439;DHT22;206;48.782;9.252;2022-07-29T07:25:16;27.30;31.30
439;DHT22;206;48.782;9.252;2022-07-29T07:27:43;27.40;30.60
439;DHT22;206;48.782;9.252;2022-07-29T07:30:10;27.50;30.40
439;DHT22;206;48.782;9.252;2022-07-29T07:32:36;27.60;30.20
439;DHT22;206;48.782;9.252;2022-07-29T07:35:04;27.60;29.70
439;DHT22;206;48.782;9.252;2022-07-29T07:37:29;27.60;29.80
439;DHT22;206;48.782;9.252;2022-07-29T07:39:55;27.60;29.30
439;DHT22;206;48.782;9.252;2022-07-29T07:42:21;27.60;29.20
439;DHT22;206;48.782;9.252;2022-07-29T07:44:47;27.60;29.40
439;DHT22;206;48.782;9.252;2022-07-29T07:47:15;27.70;29.10
439;DHT22;206;48.782;9.252;2022-07-29T07:49:48;27.80;29.00
439;DHT22;206;48.782;9.252;2022-07-29T07:52:16;27.80;29.20
439;DHT22;206;48.782;9.252;2022-07-29T07:54:41;27.90;28.70
439;DHT22;206;48.782;9.252;2022-07-29T07:57:08;28.10;28.80
439;DHT22;206;48.782;9.252;2022-07-29T07:59:34;28.30;28.90
439;DHT22;206;48.782;9.252;2022-07-29T08:01:59;28.50;28.60
439;DHT22;206;48.782;9.252;2022-07-29T08:04:26;28.60;27.90
439;DHT22;206;48.782;9.252;2022-07-29T08:06:52;28.60;27.30
439;DHT22;206;48.782;9.252;2022-07-29T08:09:20;28.70;27.50
439;DHT22;206;48.782;9.252;2022-07-29T08:11:51;28.80;27.10
439;DHT22;206;48.782;9.252;2022-07-29T08:14:19;28.90;26.80
439;DHT22;206;48.782;9.252;2022-07-29T08:16:45;29.10;26.20
439;DHT22;206;48.782;9.252;2022-07-29T08:19:11;29.20;25.80
439;DHT22;206;48.782;9.252;2022-07-29T08:21:37;29.30;25.80
439;DHT22;206;48.782;9.252;2022-07-29T08:24:03;29.40;25.80
439;DHT22;206;48.782;9.252;2022-07-29T08:26:48;29.50;25.50
439;DHT22;206;48.782;9.252;2022-07-29T08:29:13;29.60;25.00
439;DHT22;206;48.782;9.252;2022-07-29T08:31:39;29.70;24.90
439;DHT22;206;48.782;9.252;2022-07-29T08:34:06;29.80;23.50
439;DHT22;206;48.782;9.252;2022-07-29T08:36:32;29.50;23.60
439;DHT22;206;48.782;9.252;2022-07-29T08:38:59;29.30;24.00
439;DHT22;206;48.782;9.252;2022-07-29T08:41:26;29.20;24.00
439;DHT22;206;48.782;9.252;2022-07-29T08:43:52;29.00;24.50
439;DHT22;206;48.782;9.252;2022-07-29T08:46:19;29.00;24.50
439;DHT22;206;48.782;9.252;2022-07-29T08:48:55;29.00;24.50
439;DHT22;206;48.782;9.252;2022-07-29T08:51:21;29.10;23.90
439;DHT22;206;48.782;9.252;2022-07-29T08:53:49;29.20;23.70
439;DHT22;206;48.782;9.252;2022-07-29T08:56:17;29.40;23.70
439;DHT22;206;48.782;9.252;2022-07-29T08:58:44;29.50;22.80
439;DHT22;206;48.782;9.252;2022-07-29T09:01:11;29.50;22.40
439;DHT22;206;48.782;9.252;2022-07-29T09:03:40;29.50;22.20
439;DHT22;206;48.782;9.252;2022-07-29T09:06:07;29.50;21.90
439;DHT22;206;48.782;9.252;2022-07-29T09:08:34;29.60;21.30
439;DHT22;206;48.782;9.252;2022-07-29T09:11:01;29.60;21.60
439;DHT22;206;48.782;9.252;2022-07-29T09:13:28;29.70;21.50
439;DHT22;206;48.782;9.252;2022-07-29T09:15:54;29.70;21.70
439;DHT22;206;48.782;9.252;2022-07-29T09:18:39;29.70;22.10
439;DHT22;206;48.782;9.252;2022-07-29T09:21:07;29.80;21.80
439;DHT22;206;48.782;9.252;2022-07-29T09:24:09;29.80;21.30
439;DHT22;206;48.782;9.252;2022-07-29T09:26:40;29.90;20.20
439;DHT22;206;48.782;9.252;2022-07-29T09:29:14;29.90;20.20
439;DHT22;206;48.782;9.252;2022-07-29T09:31:44;29.80;19.70
439;DHT22;206;48.782;9.252;2022-07-29T09:34:11;29.90;19.50
439;DHT22;206;48.782;9.252;2022-07-29T09:36:45;29.90;19.70
439;DHT22;206;48.782;9.252;2022-07-29T09:39:12;29.90;19.30
439;DHT22;206;48.782;9.252;2022-07-29T09:44:10;29.70;20.40
439;DHT22;206;48.782;9.252;2022-07-29T09:46:36;29.70;20.60
439;DHT22;206;48.782;9.252;2022-07-29T09:49:12;29.70;19.90
439;DHT22;206;48.782;9.252;2022-07-29T09:51:38;29.70;19.40
439;DHT22;206;48.782;9.252;2022-07-29T09:54:24;29.70;18.80
439;DHT22;206;48.782;9.252;2022-07-29T09:56:51;29.60;19.30
439;DHT22;206;48.782;9.252;2022-07-29T09:59:17;29.60;18.90
439;DHT22;206;48.782;9.252;2022-07-29T10:01:43;29.60;18.60
439;DHT22;206;48.782;9.252;2022-07-29T10:04:09;29.60;18.80
439;DHT22;206;48.782;9.252;2022-07-29T10:06:35;29.60;18.90
439;DHT22;206;48.782;9.252;2022-07-29T10:09:20;29.70;18.50
439;DHT22;206;48.782;9.252;2022-07-29T10:12:03;29.80;18.20
439;DHT22;206;48.782;9.252;2022-07-29T10:14:30;29.80;17.30
439;DHT22;206;48.782;9.252;2022-07-29T10:16:56;29.80;17.40
439;DHT22;206;48.782;9.252;2022-07-29T10:19:22;29.90;17.60
439;DHT22;206;48.782;9.252;2022-07-29T10:21:48;29.90;17.00
439;DHT22;206;48.782;9.252;2022-07-29T10:24:14;30.00;17.30
439;DHT22;206;48.782;9.252;2022-07-29T10:26:40;30.00;16.80
439;DHT22;206;48.782;9.252;2022-07-29T10:29:06;30.00;16.80
439;DHT22;206;48.782;9.252;2022-07-29T10:37:36;30.00;16.60
439;DHT22;206;48.782;9.252;2022-07-29T10:42:49;29.90;16.60
439;DHT22;206;48.782;9.252;2022-07-29T10:45:17;29.80;16.90
439;DHT22;206;48.782;9.252;2022-07-29T10:47:43;29.80;17.20
439;DHT22;206;48.782;9.252;2022-07-29T10:50:10;29.70;17.20
439;DHT22;206;48.782;9.252;2022-07-29T10:55:36;29.50;18.60
439;DHT22;206;48.782;9.252;2022-07-29T10:58:12;29.30;21.00
439;DHT22;206;48.782;9.252;2022-07-29T11:00:39;29.20;25.20
439;DHT22;206;48.782;9.252;2022-07-29T11:03:04;29.10;24.30
439;DHT22;206;48.782;9.252;2022-07-29T11:05:30;28.80;25.80
439;DHT22;206;48.782;9.252;2022-07-29T11:08:20;28.60;30.10
439;DHT22;206;48.782;9.252;2022-07-29T11:10:49;28.40;30.80
439;DHT22;206;48.782;9.252;2022-07-29T11:13:45;28.30;34.80
439;DHT22;206;48.782;9.252;2022-07-29T11:16:16;28.20;36.60
439;DHT22;206;48.782;9.252;2022-07-29T11:21:36;27.70;38.70
439;DHT22;206;48.782;9.252;2022-07-29T11:24:16;27.50;37.60
439;DHT22;206;48.782;9.252;2022-07-29T11:26:42;27.30;38.40
439;DHT22;206;48.782;9.252;2022-07-29T11:29:20;27.20;37.40
439;DHT22;206;48.782;9.252;2022-07-29T11:31:52;27.00;37.30
439;DHT22;206;48.782;9.252;2022-07-29T11:34:31;26.80;39.80
439;DHT22;206;48.782;9.252;2022-07-29T11:45:12;25.80;29.90
439;DHT22;206;48.782;9.252;2022-07-29T11:50:15;25.40;33.60
439;DHT22;206;48.782;9.252;2022-07-29T11:52:46;25.20;33.50
439;DHT22;206;48.782;9.252;2022-07-29T11:55:17;25.00;29.60
439;DHT22;206;48.782;9.252;2022-07-29T11:57:52;25.00;36.90
439;DHT22;206;48.782;9.252;2022-07-29T12:02:48;24.90;36.80
439;DHT22;206;48.782;9.252;2022-07-29T12:05:14;24.80;41.00
439;DHT22;206;48.782;9.252;2022-07-29T12:07:40;24.70;39.60
439;DHT22;206;48.782;9.252;2022-07-29T12:10:08;24.70;36.60
439;DHT22;206;48.782;9.252;2022-07-29T12:12:35;24.60;36.30
439;DHT22;206;48.782;9.252;2022-07-29T12:15:17;24.60;37.40
439;DHT22;206;48.782;9.252;2022-07-29T12:17:45;24.50;39.50
439;DHT22;206;48.782;9.252;2022-07-29T12:20:11;24.50;39.50
439;DHT22;206;48.782;9.252;2022-07-29T12:22:40;24.50;41.90
439;DHT22;206;48.782;9.252;2022-07-29T12:25:10;24.40;43.50
439;DHT22;206;48.782;9.252;2022-07-29T12:27:37;24.40;42.80
439;DHT22;206;48.782;9.252;2022-07-29T12:30:09;24.50;41.30
439;DHT22;206;48.782;9.252;2022-07-29T12:32:37;24.50;41.60
439;DHT22;206;48.782;9.252;2022-07-29T12:35:05;24.50;41.50
439;DHT22;206;48.782;9.252;2022-07-29T12:37:36;24.50;39.70
439;DHT22;206;48.782;9.252;2022-07-29T12:40:04;24.60;39.00
439;DHT22;206;48.782;9.252;2022-07-29T12:42:30;24.60;42.80
439;DHT22;206;48.782;9.252;2022-07-29T12:44:56;24.70;41.00
439;DHT22;206;48.782;9.252;2022-07-29T12:47:22;24.70;42.20
439;DHT22;206;48.782;9.252;2022-07-29T12:49:52;24.70;41.50
439;DHT22;206;48.782;9.252;2022-07-29T12:52:34;24.70;41.00
439;DHT22;206;48.782;9.252;2022-07-29T12:55:00;24.80;41.90
439;DHT22;206;48.782;9.252;2022-07-29T12:57:27;24.80;40.80
439;DHT22;206;48.782;9.252;2022-07-29T13:00:04;24.80;41.50
439;DHT22;206;48.782;9.252;2022-07-29T13:02:30;24.80;42.60
439;DHT22;206;48.782;9.252;2022-07-29T13:04:57;24.80;41.00
439;DHT22;206;48.782;9.252;2022-07-29T13:07:25;24.70;41.20
439;DHT22;206;48.782;9.252;2022-07-29T13:09:52;24.70;40.10
439;DHT22;206;48.782;9.252;2022-07-29T13:12:18;24.60;41.50
439;DHT22;206;48.782;9.252;2022-07-29T13:14:46;24.60;41.00
439;DHT22;206;48.782;9.252;2022-07-29T13:17:15;24.50;40.30
439;DHT22;206;48.782;9.252;2022-07-29T13:19:46;24.50;42.30
439;DHT22;206;48.782;9.252;2022-07-29T13:22:14;24.40;41.80
439;DHT22;206;48.782;9.252;2022-07-29T13:27:14;24.30;46.50
439;DHT22;206;48.782;9.252;2022-07-29T13:29:39;24.30;46.00
439;DHT22;206;48.782;9.252;2022-07-29T13:32:05;24.30;43.50
439;DHT22;206;48.782;9.252;2022-07-29T13:34:31;24.30;43.40
439;DHT22;206;48.782;9.252;2022-07-29T13:36:57;24.20;45.40
439;DHT22;206;48.782;9.252;2022-07-29T13:39:22;24.10;46.30
439;DHT22;206;48.782;9.252;2022-07-29T13:41:48;24.00;48.50
439;DHT22;206;48.782;9.252;2022-07-29T13:44:14;24.00;47.90
439;DHT22;206;48.782;9.252;2022-07-29T13:46:40;24.00;49.50
439;DHT22;206;48.782;9.252;2022-07-29T13:49:06;24.00;50.80
439;DHT22;206;48.782;9.252;2022-07-29T13:51:31;24.00;49.90
439;DHT22;206;48.782;9.252;2022-07-29T13:53:57;24.00;51.50
439;DHT22;206;48.782;9.252;2022-07-29T13:56:22;24.10;50.40
439;DHT22;206;48.782;9.252;2022-07-29T13:58:48;24.10;49.00
439;DHT22;206;48.782;9.252;2022-07-29T14:01:14;24.10;48.50
439;DHT22;206;48.782;9.252;2022-07-29T14:03:40;24.10;47.80
439;DHT22;206;48.782;9.252;2022-07-29T14:06:08;24.30;51.30
439;DHT22;206;48.782;9.252;2022-07-29T14:08:34;24.40;49.50
439;DHT22;206;48.782;9.252;2022-07-29T14:11:00;24.50;49.00
439;DHT22;206;48.782;9.252;2022-07-29T14:13:25;24.70;47.60
439;DHT22;206;48.782;9.252;2022-07-29T14:15:51;24.90;48.60
439;DHT22;206;48.782;9.252;2022-07-29T14:18:17;25.00;47.10
439;DHT22;206;48.782;9.252;2022-07-29T14:20:43;25.20;47.80
439;DHT22;206;48.782;9.252;2022-07-29T14:23:08;25.30;48.30
439;DHT22;206;48.782;9.252;2022-07-29T14:25:34;25.30;48.20
439;DHT22;206;48.782;9.252;2022-07-29T14:27:59;25.50;48.60
439;DHT22;206;48.782;9.252;2022-07-29T14:30:25;25.50;48.00
439;DHT22;206;48.782;9.252;2022-07-29T14:32:51;25.60;47.30
439;DHT22;206;48.782;9.252;2022-07-29T14:35:16;25.60;47.20
439;DHT22;206;48.782;9.252;2022-07-29T14:37:42;25.70;46.90
439;DHT22;206;48.782;9.252;2022-07-29T14:40:09;25.70;47.10
439;DHT22;206;48.782;9.252;2022-07-29T14:42:35;25.70;46.00
439;DHT22;206;48.782;9.252;2022-07-29T14:45:01;25.70;46.00
439;DHT22;206;48.782;9.252;2022-07-29T14:47:27;25.70;46.90
439;DHT22;206;48.782;9.252;2022-07-29T14:49:52;25.70;45.30
439;DHT22;206;48.782;9.252;2022-07-29T14:52:18;25.80;45.90
439;DHT22;206;48.782;9.252;2022-07-29T14:54:44;25.80;46.50
439;DHT22;206;48.782;9.252;2022-07-29T14:57:09;25.80;46.90
439;DHT22;206;48.782;9.252;2022-07-29T14:59:35;25.80;47.60
439;DHT22;206;48.782;9.252;2022-07-29T15:02:01;25.90;45.30
439;DHT22;206;48.782;9.252;2022-07-29T15:04:26;25.90;44.80
439;DHT22;206;48.782;9.252;2022-07-29T15:06:52;25.80;46.70
439;DHT22;206;48.782;9.252;2022-07-29T15:09:17;25.90;46.20
439;DHT22;206;48.782;9.252;2022-07-29T15:11:43;25.90;46.10
439;DHT22;206;48.782;9.252;2022-07-29T15:14:09;25.90;44.60
439;DHT22;206;48.782;9.252;2022-07-29T15:16:39;25.90;44.00
439;DHT22;206;48.782;9.252;2022-07-29T15:19:05;25.80;44.60
439;DHT22;206;48.782;9.252;2022-07-29T15:21:31;25.80;46.20
439;DHT22;206;48.782;9.252;2022-07-29T15:23:57;25.90;47.70
439;DHT22;206;48.782;9.252;2022-07-29T15:26:23;25.90;46.30
439;DHT22;206;48.782;9.252;2022-07-29T15:28:48;25.90;46.00
439;DHT22;206;48.782;9.252;2022-07-29T15:31:14;25.90;45.50
439;DHT22;206;48.782;9.252;2022-07-29T15:33:40;25.90;45.40
439;DHT22;206;48.782;9.252;2022-07-29T15:36:06;25.90;45.80
439;DHT22;206;48.782;9.252;2022-07-29T15:38:31;25.80;44.80
439;DHT22;206;48.782;9.252;2022-07-29T15:40:58;25.80;45.30
439;DHT22;206;48.782;9.252;2022-07-29T15:43:24;25.80;46.20
439;DHT22;206;48.782;9.252;2022-07-29T15:45:50;25.80;46.30
439;DHT22;206;48.782;9.252;2022-07-29T15:48:37;25.80;46.30
439;DHT22;206;48.782;9.252;2022-07-29T15:51:03;25.80;46.70
439;DHT22;206;48.782;9.252;2022-07-29T15:53:29;25.90;46.10
439;DHT22;206;48.782;9.252;2022-07-29T15:55:55;25.90;44.90
439;DHT22;206;48.782;9.252;2022-07-29T15:58:21;25.90;45.20
439;DHT22;206;48.782;9.252;2022-07-29T16:00:47;25.90;46.80
439;DHT22;206;48.782;9.252;2022-07-29T16:03:13;25.90;45.60
439;DHT22;206;48.782;9.252;2022-07-29T16:05:39;25.90;45.90
439;DHT22;206;48.782;9.252;2022-07-29T16:08:05;25.90;45.20
439;DHT22;206;48.782;9.252;2022-07-29T16:10:36;25.90;44.70
439;DHT22;206;48.782;9.252;2022-07-29T16:13:05;25.90;45.20
439;DHT22;206;48.782;9.252;2022-07-29T16:15:31;25.90;47.30
439;DHT22;206;48.782;9.252;2022-07-29T16:17:57;25.90;46.10
439;DHT22;206;48.782;9.252;2022-07-29T16:20:22;25.90;46.20
439;DHT22;206;48.782;9.252;2022-07-29T16:22:48;25.90;45.80
439;DHT22;206;48.782;9.252;2022-07-29T16:25:14;26.00;46.60
439;DHT22;206;48.782;9.252;2022-07-29T16:27:39;26.00;47.20
439;DHT22;206;48.782;9.252;2022-07-29T16:30:06;26.00;47.40
439;DHT22;206;48.782;9.252;2022-07-29T16:32:34;26.00;46.80
439;DHT22;206;48.782;9.252;2022-07-29T16:35:00;26.00;46.20
439;DHT22;206;48.782;9.252;2022-07-29T16:37:27;26.00;46.80
439;DHT22;206;48.782;9.252;2022-07-29T16:39:57;26.00;47.80
439;DHT22;206;48.782;9.252;2022-07-29T16:42:23;26.00;46.50
439;DHT22;206;48.782;9.252;2022-07-29T16:44:49;26.00;45.90
439;DHT22;206;48.782;9.252;2022-07-29T16:47:14;26.00;45.70
439;DHT22;206;48.782;9.252;2022-07-29T16:49:40;25.90;46.10
439;DHT22;206;48.782;9.252;2022-07-29T16:52:05;26.00;46.70
439;DHT22;206;48.782;9.252;2022-07-29T16:54:32;26.00;45.30
439;DHT22;206;48.782;9.252;2022-07-29T16:56:57;26.00;45.10
439;DHT22;206;48.782;9.252;2022-07-29T16:59:26;26.00;44.70
439;DHT22;206;48.782;9.252;2022-07-29T17:01:51;26.10;43.50
439;DHT22;206;48.782;9.252;2022-07-29T17:04:17;26.10;43.70
439;DHT22;206;48.782;9.252;2022-07-29T17:06:43;26.10;44.00
439;DHT22;206;48.782;9.252;2022-07-29T17:09:10;26.10;43.60
439;DHT22;206;48.782;9.252;2022-07-29T17:11:36;26.10;43.90
439;DHT22;206;48.782;9.252;2022-07-29T17:14:02;26.10;42.90
439;DHT22;206;48.782;9.252;2022-07-29T17:16:28;26.10;42.80